sensor_id;sensor_type;location;lat;lon;timestamp;temperature;humidity
15564;DHT22;7883;52.554;13.364;2023-04-15T00:01:24;8.90;99.90
15564;DHT22;7883;52.554;13.364;2023-04-15T00:03:52;8.90;99.90
15564;DHT22;7883;52.554;13.364;2023-04-15T00:06:21;8.90;99.90
15564;DHT22;7883;52.554;13.364;2023-04-15T00:08:48;8.90;99.90
15564;DHT22;7883;52.554;13.364;2023-04-15T00:11:15;8.90;99.90
15564;DHT22;7883;52.554;13.364;2023-04-15T00:13:43;8.90;99.90
15564;DHT22;7883;52.554;13.364;2023-04-15T00:16:10;8.90;99.90
15564;DHT22;7883;52.554;13.364;2023-04-15T00:18:37;8.90;99.90
15564;DHT22;7883;52.554;13.364;2023-04-15T00:21:04;8.90;99.90
15564;DHT22;7883;52.554;13.364;2023-04-15T00:23:33;8.80;99.90
15564;DHT22;7883;52.554;13.364;2023-04-15T00:26:01;8.80;99.90
15564;DHT22;7883;52.554;13.364;2023-04-15T00:28:28;8.80;99.90
15564;DHT22;7883;52.554;13.364;2023-04-15T00:30:56;8.90;99.90
15564;DHT22;7883;52.554;13.364;2023-04-15T00:33:24;8.90;99.90
15564;DHT22;7883;52.554;13.364;2023-04-15T00:35:52;8.90;99.90
15564;DHT22;7883;52.554;13.364;2023-04-15T00:38:20;8.90;99.90
15564;DHT22;7883;52.554;13.364;2023-04-15T00:40:49;8.90;99.90
15564;DHT22;7883;52.554;13.364;2023-04-15T00:43:17;8.90;99.90
15564;DHT22;7883;52.554;13.364;2023-04-15T00:45:44;8.90;99.90
15564;DHT22;7883;52.554;13.364;2023-04-15T00:48:12;8.90;99.90
15564;DHT22;7883;52.554;13.364;2023-04-15T00:50:39;8.90;99.90
15564;DHT22;7883;52.554;13.364;2023-04-15T00:53:06;8.90;99.90
15564;DHT22;7883;52.554;13.364;2023-04-15T00:55:34;8.80;99.90
15564;DHT22;7883;52.554;13.364;2023-04-15T00:58:03;8.90;99.90
15564;DHT22;7883;52.554;13.364;2023-04-15T01:00:30;8.90;99.90
15564;DHT22;7883;52.554;13.364;2023-04-15T01:02:57;8.80;99.90
15564;DHT22;7883;52.554;13.364;2023-04-15T01:05:26;8.80;99.90
15564;DHT22;7883;52.554;13.364;2023-04-15T01:07:56;8.80;99.90
15564;DHT22;7883;52.554;13.364;2023-04-15T01:10:24;8.90;99.90
15564;DHT22;7883;52.554;13.364;2023-04-15T01:12:52;8.90;99.90
15564;DHT22;7883;52.554;13.364;2023-04-15T01:15:22;8.90;99.90
15564;DHT22;7883;52.554;13.364;2023-04-15T01:17:49;8.90;99.90
15564;DHT22;7883;52.554;13.364;2023-04-15T01:20:16;8.90;99.90
15564;DHT22;7883;52.554;13.364;2023-04-15T01:22:43;8.90;99.90
15564;DHT22;7883;52.554;13.364;2023-04-15T01:25:13;8.90;99.90
15564;DHT22;7883;52.554;13.364;2023-04-15T01:27:44;8.90;99.90
15564;DHT22;7883;52.554;13.364;2023-04-15T01:30:13;8.90;99.90
15564;DHT22;7883;52.554;13.364;2023-04-15T01:32:40;8.90;99.90
15564;DHT22;7883;52.554;13.364;2023-04-15T01:35:07;8.90;99.90
15564;DHT22;7883;52.554;13.364;2023-04-15T01:37:35;8.90;99.90
15564;DHT22;7883;52.554;13.364;2023-04-15T01:40:04;8.90;99.90
15564;DHT22;7883;52.554;13.364;2023-04-15T01:42:31;8.90;99.90
15564;DHT22;7883;52.554;13.364;2023-04-15T01:44:59;8.90;99.90
15564;DHT22;7883;52.554;13.364;2023-04-15T01:47:26;8.90;99.90
15564;DHT22;7883;52.554;13.364;2023-04-15T01:49:53;8.90;99.90
15564;DHT22;7883;52.554;13.364;2023-04-15T01:52:20;8.90;99.90
15564;DHT22;7883;52.554;13.364;2023-04-15T01:54:47;8.90;99.90
15564;DHT22;7883;52.554;13.364;2023-04-15T01:57:15;8.90;99.90
15564;DHT22;7883;52.554;13.364;2023-04-15T01:59:42;8.90;99.90
15564;DHT22;7883;52.554;13.364;2023-04-15T02:02:10;9.00;99.90
15564;DHT22;7883;52.554;13.364;2023-04-15T02:04:37;8.90;99.90
15564;DHT22;7883;52.554;13.364;2023-04-15T02:07:04;8.90;99.90
15564;DHT22;7883;52.554;13.364;2023-04-15T02:09:34;8.90;99.90
15564;DHT22;7883;52.554;13.364;2023-04-15T02:12:01;9.00;99.90
15564;DHT22;7883;52.554;13.364;2023-04-15T02:14:28;8.90;99.90
15564;DHT22;7883;52.554;13.364;2023-04-15T02:16:55;9.00;99.90
15564;DHT22;7883;52.554;13.364;2023-04-15T02:19:25;9.00;99.90
15564;DHT22;7883;52.554;13.364;2023-04-15T02:21:52;9.00;99.90
15564;DHT22;7883;52.554;13.364;2023-04-15T02:24:20;9.00;99.90
15564;DHT22;7883;52.554;13.364;2023-04-15T02:26:47;9.00;99.90
15564;DHT22;7883;52.554;13.364;2023-04-15T02:29:14;9.00;99.90
15564;DHT22;7883;52.554;13.364;2023-04-15T02:31:41;9.00;99.90
15564;DHT22;7883;52.554;13.364;2023-04-15T02:34:10;9.00;99.90
15564;DHT22;7883;52.554;13.364;2023-04-15T02:36:39;9.00;99.90
15564;DHT22;7883;52.554;13.364;2023-04-15T02:39:08;9.00;99.90
15564;DHT22;7883;52.554;13.364;2023-04-15T02:41:35;9.00;99.90
15564;DHT22;7883;52.554;13.364;2023-04-15T02:44:02;9.00;99.90
15564;DHT22;7883;52.554;13.364;2023-04-15T02:46:29;9.00;99.90
15564;DHT22;7883;52.554;13.364;2023-04-15T02:48:56;9.00;99.90
15564;DHT22;7883;52.554;13.364;2023-04-15T02:51:25;9.00;99.90
15564;DHT22;7883;52.554;13.364;2023-04-15T02:53:59;9.00;99.90
15564;DHT22;7883;52.554;13.364;2023-04-15T02:56:26;9.00;99.90
15564;DHT22;7883;52.554;13.364;2023-04-15T02:58:55;9.00;99.90
15564;DHT22;7883;52.554;13.364;2023-04-15T03:01:23;9.00;99.90
15564;DHT22;7883;52.554;13.364;2023-04-15T03:03:50;9.00;99.90
15564;DHT22;7883;52.554;13.364;2023-04-15T03:06:18;9.00;99.90
15564;DHT22;7883;52.554;13.364;2023-04-15T03:08:45;9.00;99.90
15564;DHT22;7883;52.554;13.364;2023-04-15T03:11:16;9.00;99.90
15564;DHT22;7883;52.554;13.364;2023-04-15T03:13:44;9.00;99.90
15564;DHT22;7883;52.554;13.364;2023-04-15T03:16:11;9.10;99.90
15564;DHT22;7883;52.554;13.364;2023-04-15T03:18:38;9.00;99.90
15564;DHT22;7883;52.554;13.364;2023-04-15T03:21:07;9.00;99.90
15564;DHT22;7883;52.554;13.364;2023-04-15T03:23:34;9.00;99.90
15564;DHT22;7883;52.554;13.364;2023-04-15T03:26:01;9.00;99.90
15564;DHT22;7883;52.554;13.364;2023-04-15T03:28:32;9.10;99.90
15564;DHT22;7883;52.554;13.364;2023-04-15T03:30:59;9.10;99.90
15564;DHT22;7883;52.554;13.364;2023-04-15T03:33:29;9.00;99.90
15564;DHT22;7883;52.554;13.364;2023-04-15T03:35:56;9.10;99.90
15564;DHT22;7883;52.554;13.364;2023-04-15T03:38:23;9.10;99.90
15564;DHT22;7883;52.554;13.364;2023-04-15T03:40:50;9.10;99.90
15564;DHT22;7883;52.554;13.364;2023-04-15T03:43:17;9.10;99.90
15564;DHT22;7883;52.554;13.364;2023-04-15T03:45:45;9.20;99.90
15564;DHT22;7883;52.554;13.364;2023-04-15T03:48:12;9.10;99.90
15564;DHT22;7883;52.554;13.364;2023-04-15T03:50:39;9.10;99.90
15564;DHT22;7883;52.554;13.364;2023-04-15T03:53:06;9.10;99.90
15564;DHT22;7883;52.554;13.364;2023-04-15T03:55:34;9.20;99.90
15564;DHT22;7883;52.554;13.364;2023-04-15T03:58:01;9.10;99.90
15564;DHT22;7883;52.554;13.364;2023-04-15T04:00:28;9.20;99.90
15564;DHT22;7883;52.554;13.364;2023-04-15T04:02:57;9.10;99.90
15564;DHT22;7883;52.554;13.364;2023-04-15T04:05:24;9.20;99.90
15564;DHT22;7883;52.554;13.364;2023-04-15T04:07:52;9.20;99.90
15564;DHT22;7883;52.554;13.364;2023-04-15T04:10:19;9.10;99.90
15564;DHT22;7883;52.554;13.364;2023-04-15T04:12:46;9.20;99.90
15564;DHT22;7883;52.554;13.364;2023-04-15T04:15:13;9.20;99.90
15564;DHT22;7883;52.554;13.364;2023-04-15T04:17:41;9.20;99.90
15564;DHT22;7883;52.554;13.364;2023-04-15T04:20:11;9.10;99.90
15564;DHT22;7883;52.554;13.364;2023-04-15T04:22:40;9.20;99.90
15564;DHT22;7883;52.554;13.364;2023-04-15T04:25:08;9.20;99.90
15564;DHT22;7883;52.554;13.364;2023-04-15T04:27:35;9.20;99.90
15564;DHT22;7883;52.554;13.364;2023-04-15T04:30:03;9.20;99.90
15564;DHT22;7883;52.554;13.364;2023-04-15T04:32:32;9.20;99.90
15564;DHT22;7883;52.554;13.364;2023-04-15T04:35:00;9.20;99.90
15564;DHT22;7883;52.554;13.364;2023-04-15T04:37:28;9.30;99.90
15564;DHT22;7883;52.554;13.364;2023-04-15T04:39:56;9.30;99.90
15564;DHT22;7883;52.554;13.364;2023-04-15T04:42:23;9.30;99.90
15564;DHT22;7883;52.554;13.364;2023-04-15T04:44:49;9.30;99.90
15564;DHT22;7883;52.554;13.364;2023-04-15T04:47:17;9.30;99.90
15564;DHT22;7883;52.554;13.364;2023-04-15T04:49:44;9.30;99.90
15564;DHT22;7883;52.554;13.364;2023-04-15T04:52:11;9.30;99.90
15564;DHT22;7883;52.554;13.364;2023-04-15T04:54:40;9.40;99.90
15564;DHT22;7883;52.554;13.364;2023-04-15T04:57:07;9.40;99.90
15564;DHT22;7883;52.554;13.364;2023-04-15T04:59:37;9.30;99.90
15564;DHT22;7883;52.554;13.364;2023-04-15T05:02:04;9.40;99.90
15564;DHT22;7883;52.554;13.364;2023-04-15T05:04:31;9.40;99.90
15564;DHT22;7883;52.554;13.364;2023-04-15T05:06:58;9.40;99.90
15564;DHT22;7883;52.554;13.364;2023-04-15T05:09:25;9.40;99.90
15564;DHT22;7883;52.554;13.364;2023-04-15T05:11:54;9.40;99.90
15564;DHT22;7883;52.554;13.364;2023-04-15T05:14:21;9.40;99.90
15564;DHT22;7883;52.554;13.364;2023-04-15T05:16:48;9.30;99.90
15564;DHT22;7883;52.554;13.364;2023-04-15T05:19:15;9.40;99.90
15564;DHT22;7883;52.554;13.364;2023-04-15T05:21:42;9.40;99.90
15564;DHT22;7883;52.554;13.364;2023-04-15T05:24:09;9.40;99.90
15564;DHT22;7883;52.554;13.364;2023-04-15T05:26:36;9.50;99.90
15564;DHT22;7883;52.554;13.364;2023-04-15T05:29:05;9.50;99.90
15564;DHT22;7883;52.554;13.364;2023-04-15T05:31:32;9.50;99.90
15564;DHT22;7883;52.554;13.364;2023-04-15T05:34:01;9.50;99.90
15564;DHT22;7883;52.554;13.364;2023-04-15T05:36:27;9.60;99.90
15564;DHT22;7883;52.554;13.364;2023-04-15T05:38:56;9.60;99.90
15564;DHT22;7883;52.554;13.364;2023-04-15T05:41:23;9.60;99.90
15564;DHT22;7883;52.554;13.364;2023-04-15T05:43:52;9.50;99.90
15564;DHT22;7883;52.554;13.364;2023-04-15T05:46:22;9.60;99.90
15564;DHT22;7883;52.554;13.364;2023-04-15T05:48:51;9.60;99.90
15564;DHT22;7883;52.554;13.364;2023-04-15T05:51:18;9.70;99.90
15564;DHT22;7883;52.554;13.364;2023-04-15T05:53:45;9.70;99.90
15564;DHT22;7883;52.554;13.364;2023-04-15T05:56:12;9.60;99.90
15564;DHT22;7883;52.554;13.364;2023-04-15T05:58:39;9.70;99.90
15564;DHT22;7883;52.554;13.364;2023-04-15T06:01:06;9.80;99.90
15564;DHT22;7883;52.554;13.364;2023-04-15T06:03:34;9.90;99.90
15564;DHT22;7883;52.554;13.364;2023-04-15T06:06:01;9.90;99.90
15564;DHT22;7883;52.554;13.364;2023-04-15T06:08:28;10.00;99.90
15564;DHT22;7883;52.554;13.364;2023-04-15T06:10:55;10.10;99.90
15564;DHT22;7883;52.554;13.364;2023-04-15T06:13:22;10.00;99.90
15564;DHT22;7883;52.554;13.364;2023-04-15T06:15:49;10.10;99.90
15564;DHT22;7883;52.554;13.364;2023-04-15T06:18:16;10.10;99.90
15564;DHT22;7883;52.554;13.364;2023-04-15T06:20:45;10.20;99.90
15564;DHT22;7883;52.554;13.364;2023-04-15T06:23:12;10.20;99.90
15564;DHT22;7883;52.554;13.364;2023-04-15T06:25:39;10.20;99.90
15564;DHT22;7883;52.554;13.364;2023-04-15T06:28:06;10.20;99.90
15564;DHT22;7883;52.554;13.364;2023-04-15T06:30:33;10.20;99.90
15564;DHT22;7883;52.554;13.364;2023-04-15T06:33:01;10.30;99.90
15564;DHT22;7883;52.554;13.364;2023-04-15T06:35:30;10.40;99.90
15564;DHT22;7883;52.554;13.364;2023-04-15T06:37:58;10.50;99.90
15564;DHT22;7883;52.554;13.364;2023-04-15T06:40:25;10.40;99.90
15564;DHT22;7883;52.554;13.364;2023-04-15T06:42:52;10.50;99.90
15564;DHT22;7883;52.554;13.364;2023-04-15T06:45:19;10.60;99.90
15564;DHT22;7883;52.554;13.364;2023-04-15T06:47:46;10.70;99.90
15564;DHT22;7883;52.554;13.364;2023-04-15T06:50:13;10.80;99.90
15564;DHT22;7883;52.554;13.364;2023-04-15T06:52:40;10.90;99.90
15564;DHT22;7883;52.554;13.364;2023-04-15T06:55:09;10.90;99.90
15564;DHT22;7883;52.554;13.364;2023-04-15T06:57:36;10.90;99.90
15564;DHT22;7883;52.554;13.364;2023-04-15T07:00:03;10.90;99.90
15564;DHT22;7883;52.554;13.364;2023-04-15T07:02:32;10.70;99.90
15564;DHT22;7883;52.554;13.364;2023-04-15T07:04:59;10.80;99.90
15564;DHT22;7883;52.554;13.364;2023-04-15T07:07:26;10.80;99.90
15564;DHT22;7883;52.554;13.364;2023-04-15T07:09:53;10.80;99.90
15564;DHT22;7883;52.554;13.364;2023-04-15T07:12:21;10.90;99.90
15564;DHT22;7883;52.554;13.364;2023-04-15T07:14:49;11.00;99.90
15564;DHT22;7883;52.554;13.364;2023-04-15T07:17:17;11.00;99.90
15564;DHT22;7883;52.554;13.364;2023-04-15T07:19:44;11.00;99.90
15564;DHT22;7883;52.554;13.364;2023-04-15T07:22:11;11.00;99.90
15564;DHT22;7883;52.554;13.364;2023-04-15T07:24:37;10.80;99.90
15564;DHT22;7883;52.554;13.364;2023-04-15T07:27:06;10.70;99.90
15564;DHT22;7883;52.554;13.364;2023-04-15T07:29:34;10.80;99.90
15564;DHT22;7883;52.554;13.364;2023-04-15T07:32:02;10.70;99.90
15564;DHT22;7883;52.554;13.364;2023-04-15T07:34:29;10.80;99.90
15564;DHT22;7883;52.554;13.364;2023-04-15T07:36:55;10.90;99.90
15564;DHT22;7883;52.554;13.364;2023-04-15T07:39:23;10.70;99.90
15564;DHT22;7883;52.554;13.364;2023-04-15T07:41:50;10.80;99.90
15564;DHT22;7883;52.554;13.364;2023-04-15T07:44:17;10.70;99.90
15564;DHT22;7883;52.554;13.364;2023-04-15T07:46:48;10.90;99.90
15564;DHT22;7883;52.554;13.364;2023-04-15T07:49:15;11.00;99.90
15564;DHT22;7883;52.554;13.364;2023-04-15T07:51:43;10.90;99.90
15564;DHT22;7883;52.554;13.364;2023-04-15T07:54:10;10.70;99.90
15564;DHT22;7883;52.554;13.364;2023-04-15T07:56:38;10.70;99.90
15564;DHT22;7883;52.554;13.364;2023-04-15T07:59:05;10.70;99.90
15564;DHT22;7883;52.554;13.364;2023-04-15T08:01:31;10.80;99.90
15564;DHT22;7883;52.554;13.364;2023-04-15T08:04:00;10.70;99.90
15564;DHT22;7883;52.554;13.364;2023-04-15T08:06:27;10.70;99.90
15564;DHT22;7883;52.554;13.364;2023-04-15T08:08:54;10.70;99.90
15564;DHT22;7883;52.554;13.364;2023-04-15T08:11:21;10.70;99.90
15564;DHT22;7883;52.554;13.364;2023-04-15T08:13:49;10.80;99.90
15564;DHT22;7883;52.554;13.364;2023-04-15T08:16:17;10.80;99.90
15564;DHT22;7883;52.554;13.364;2023-04-15T08:18:45;10.80;99.90
15564;DHT22;7883;52.554;13.364;2023-04-15T08:21:13;10.80;99.90
15564;DHT22;7883;52.554;13.364;2023-04-15T08:23:40;10.80;99.90
15564;DHT22;7883;52.554;13.364;2023-04-15T08:26:08;10.80;99.90
15564;DHT22;7883;52.554;13.364;2023-04-15T08:28:37;10.70;99.90
15564;DHT22;7883;52.554;13.364;2023-04-15T08:31:04;10.80;99.90
15564;DHT22;7883;52.554;13.364;2023-04-15T08:33:31;10.70;99.90
15564;DHT22;7883;52.554;13.364;2023-04-15T08:35:59;10.70;99.90
15564;DHT22;7883;52.554;13.364;2023-04-15T08:38:27;10.90;99.90
15564;DHT22;7883;52.554;13.364;2023-04-15T08:40:55;11.10;99.90
15564;DHT22;7883;52.554;13.364;2023-04-15T08:43:27;11.00;99.90
15564;DHT22;7883;52.554;13.364;2023-04-15T08:45:55;11.00;99.90
15564;DHT22;7883;52.554;13.364;2023-04-15T08:48:28;11.10;99.90
15564;DHT22;7883;52.554;13.364;2023-04-15T08:50:56;11.20;99.90
15564;DHT22;7883;52.554;13.364;2023-04-15T08:53:23;11.20;99.90
15564;DHT22;7883;52.554;13.364;2023-04-15T08:55:54;11.20;99.90
15564;DHT22;7883;52.554;13.364;2023-04-15T08:58:23;11.40;99.90
15564;DHT22;7883;52.554;13.364;2023-04-15T09:00:50;11.40;99.90
15564;DHT22;7883;52.554;13.364;2023-04-15T09:03:18;11.50;99.90
15564;DHT22;7883;52.554;13.364;2023-04-15T09:05:46;11.50;99.90
15564;DHT22;7883;52.554;13.364;2023-04-15T09:08:13;11.50;99.90
15564;DHT22;7883;52.554;13.364;2023-04-15T09:10:40;11.30;99.90
15564;DHT22;7883;52.554;13.364;2023-04-15T09:13:08;11.30;99.90
15564;DHT22;7883;52.554;13.364;2023-04-15T09:15:37;11.40;99.90
15564;DHT22;7883;52.554;13.364;2023-04-15T09:18:04;11.40;99.90
15564;DHT22;7883;52.554;13.364;2023-04-15T09:25:49;11.30;99.90
15564;DHT22;7883;52.554;13.364;2023-04-15T09:28:24;11.30;99.90
15564;DHT22;7883;52.554;13.364;2023-04-15T09:30:55;11.40;99.90
15564;DHT22;7883;52.554;13.364;2023-04-15T09:33:26;11.30;99.90
15564;DHT22;7883;52.554;13.364;2023-04-15T09:35:57;11.30;99.90
15564;DHT22;7883;52.554;13.364;2023-04-15T09:38:25;11.30;99.90
15564;DHT22;7883;52.554;13.364;2023-04-15T09:40:52;11.40;99.90
15564;DHT22;7883;52.554;13.364;2023-04-15T09:43:19;11.40;99.90
15564;DHT22;7883;52.554;13.364;2023-04-15T09:45:49;11.30;99.90
15564;DHT22;7883;52.554;13.364;2023-04-15T09:48:19;11.30;99.90
15564;DHT22;7883;52.554;13.364;2023-04-15T09:50:47;11.40;99.90
15564;DHT22;7883;52.554;13.364;2023-04-15T09:53:17;11.30;99.90
15564;DHT22;7883;52.554;13.364;2023-04-15T09:55:45;11.20;99.90
15564;DHT22;7883;52.554;13.364;2023-04-15T09:58:20;11.40;99.90
15564;DHT22;7883;52.554;13.364;2023-04-15T10:00:50;11.50;99.90
15564;DHT22;7883;52.554;13.364;2023-04-15T10:03:19;11.50;99.90
15564;DHT22;7883;52.554;13.364;2023-04-15T10:05:49;11.40;99.90
15564;DHT22;7883;52.554;13.364;2023-04-15T10:08:18;11.40;99.90
15564;DHT22;7883;52.554;13.364;2023-04-15T10:10:47;11.30;99.90
15564;DHT22;7883;52.554;13.364;2023-04-15T10:13:16;11.30;99.90
15564;DHT22;7883;52.554;13.364;2023-04-15T10:15:51;11.30;99.90
15564;DHT22;7883;52.554;13.364;2023-04-15T10:18:24;11.30;99.90
15564;DHT22;7883;52.554;13.364;2023-04-15T10:20:52;11.40;99.90
15564;DHT22;7883;52.554;13.364;2023-04-15T10:23:21;11.40;99.90
15564;DHT22;7883;52.554;13.364;2023-04-15T10:25:51;11.50;99.90
15564;DHT22;7883;52.554;13.364;2023-04-15T10:28:19;11.40;99.90
15564;DHT22;7883;52.554;13.364;2023-04-15T10:30:47;11.40;99.90
15564;DHT22;7883;52.554;13.364;2023-04-15T10:33:20;11.50;99.90
15564;DHT22;7883;52.554;13.364;2023-04-15T10:35:48;11.40;99.90
15564;DHT22;7883;52.554;13.364;2023-04-15T10:38:34;11.40;99.90
15564;DHT22;7883;52.554;13.364;2023-04-15T10:41:15;11.30;99.90
15564;DHT22;7883;52.554;13.364;2023-04-15T10:43:51;11.30;99.90
15564;DHT22;7883;52.554;13.364;2023-04-15T10:46:21;11.40;99.90
15564;DHT22;7883;52.554;13.364;2023-04-15T10:48:51;11.30;99.90
15564;DHT22;7883;52.554;13.364;2023-04-15T10:51:28;11.30;99.90
15564;DHT22;7883;52.554;13.364;2023-04-15T10:53:57;11.40;99.90
15564;DHT22;7883;52.554;13.364;2023-04-15T10:56:27;11.40;99.90
15564;DHT22;7883;52.554;13.364;2023-04-15T10:58:54;11.40;99.90
15564;DHT22;7883;52.554;13.364;2023-04-15T11:01:50;11.40;99.90
15564;DHT22;7883;52.554;13.364;2023-04-15T11:04:53;11.50;99.90
15564;DHT22;7883;52.554;13.364;2023-04-15T11:07:36;11.30;99.90
15564;DHT22;7883;52.554;13.364;2023-04-15T11:13:26;11.40;99.90
15564;DHT22;7883;52.554;13.364;2023-04-15T11:15:59;11.40;99.90
15564;DHT22;7883;52.554;13.364;2023-04-15T11:18:36;11.50;99.90
15564;DHT22;7883;52.554;13.364;2023-04-15T11:21:07;11.50;99.90
15564;DHT22;7883;52.554;13.364;2023-04-15T11:23:37;11.50;99.90
15564;DHT22;7883;52.554;13.364;2023-04-15T11:26:08;11.50;99.90
15564;DHT22;7883;52.554;13.364;2023-04-15T11:28:37;11.50;99.90
15564;DHT22;7883;52.554;13.364;2023-04-15T11:31:08;11.50;99.90
15564;DHT22;7883;52.554;13.364;2023-04-15T11:33:36;11.40;99.90
15564;DHT22;7883;52.554;13.364;2023-04-15T11:36:05;11.40;99.90
15564;DHT22;7883;52.554;13.364;2023-04-15T11:38:33;11.40;99.90
15564;DHT22;7883;52.554;13.364;2023-04-15T11:41:07;11.40;99.90
15564;DHT22;7883;52.554;13.364;2023-04-15T11:43:35;11.30;99.90
15564;DHT22;7883;52.554;13.364;2023-04-15T11:46:02;11.30;99.90
15564;DHT22;7883;52.554;13.364;2023-04-15T11:48:31;11.30;99.90
15564;DHT22;7883;52.554;13.364;2023-04-15T11:51:00;11.40;99.90
15564;DHT22;7883;52.554;13.364;2023-04-15T11:53:37;11.40;99.90
15564;DHT22;7883;52.554;13.364;2023-04-15T11:56:06;11.40;99.90
15564;DHT22;7883;52.554;13.364;2023-04-15T11:58:35;11.30;99.90
15564;DHT22;7883;52.554;13.364;2023-04-15T12:01:05;11.40;99.90
15564;DHT22;7883;52.554;13.364;2023-04-15T12:03:37;11.30;99.90
15564;DHT22;7883;52.554;13.364;2023-04-15T12:06:10;11.30;99.90
15564;DHT22;7883;52.554;13.364;2023-04-15T12:09:11;11.30;99.90
15564;DHT22;7883;52.554;13.364;2023-04-15T12:11:43;11.30;99.90
15564;DHT22;7883;52.554;13.364;2023-04-15T12:14:29;11.30;99.90
15564;DHT22;7883;52.554;13.364;2023-04-15T12:17:01;11.40;99.90
15564;DHT22;7883;52.554;13.364;2023-04-15T12:19:30;11.40;99.90
15564;DHT22;7883;52.554;13.364;2023-04-15T12:22:02;11.30;99.90
15564;DHT22;7883;52.554;13.364;2023-04-15T12:24:32;11.40;99.90
15564;DHT22;7883;52.554;13.364;2023-04-15T12:27:02;11.40;99.90
15564;DHT22;7883;52.554;13.364;2023-04-15T12:29:31;11.30;99.90
15564;DHT22;7883;52.554;13.364;2023-04-15T12:32:04;11.40;99.90
15564;DHT22;7883;52.554;13.364;2023-04-15T12:34:33;11.40;99.90
15564;DHT22;7883;52.554;13.364;2023-04-15T12:37:03;11.40;99.90
15564;DHT22;7883;52.554;13.364;2023-04-15T12:39:36;11.40;99.90
15564;DHT22;7883;52.554;13.364;2023-04-15T12:42:05;11.40;99.90
15564;DHT22;7883;52.554;13.364;2023-04-15T12:44:33;11.50;99.90
15564;DHT22;7883;52.554;13.364;2023-04-15T12:47:01;11.50;99.90
15564;DHT22;7883;52.554;13.364;2023-04-15T12:49:30;11.50;99.90
15564;DHT22;7883;52.554;13.364;2023-04-15T12:51:59;11.40;99.90
15564;DHT22;7883;52.554;13.364;2023-04-15T12:54:29;11.50;99.90
15564;DHT22;7883;52.554;13.364;2023-04-15T12:56:58;11.50;99.90
15564;DHT22;7883;52.554;13.364;2023-04-15T12:59:26;11.50;99.90
15564;DHT22;7883;52.554;13.364;2023-04-15T13:01:54;11.60;99.90
15564;DHT22;7883;52.554;13.364;2023-04-15T13:04:22;11.60;99.90
15564;DHT22;7883;52.554;13.364;2023-04-15T13:06:51;11.70;99.90
15564;DHT22;7883;52.554;13.364;2023-04-15T13:09:18;11.70;99.90
15564;DHT22;7883;52.554;13.364;2023-04-15T13:11:50;11.60;99.90
15564;DHT22;7883;52.554;13.364;2023-04-15T13:14:23;11.70;99.90
15564;DHT22;7883;52.554;13.364;2023-04-15T13:16:50;11.70;99.90
15564;DHT22;7883;52.554;13.364;2023-04-15T13:19:19;11.70;99.90
15564;DHT22;7883;52.554;13.364;2023-04-15T13:21:46;11.70;99.90
15564;DHT22;7883;52.554;13.364;2023-04-15T13:24:13;11.60;99.90
15564;DHT22;7883;52.554;13.364;2023-04-15T13:26:41;11.60;99.90
15564;DHT22;7883;52.554;13.364;2023-04-15T13:29:08;11.50;99.90
15564;DHT22;7883;52.554;13.364;2023-04-15T13:31:38;11.40;99.90
15564;DHT22;7883;52.554;13.364;2023-04-15T13:34:06;11.50;99.90
15564;DHT22;7883;52.554;13.364;2023-04-15T13:36:33;11.50;99.90
15564;DHT22;7883;52.554;13.364;2023-04-15T13:39:00;11.50;99.90
15564;DHT22;7883;52.554;13.364;2023-04-15T13:41:27;11.50;99.90
15564;DHT22;7883;52.554;13.364;2023-04-15T13:43:55;11.50;99.90
15564;DHT22;7883;52.554;13.364;2023-04-15T13:46:23;11.50;99.90
15564;DHT22;7883;52.554;13.364;2023-04-15T13:48:54;11.50;99.90
15564;DHT22;7883;52.554;13.364;2023-04-15T13:51:21;11.40;99.90
15564;DHT22;7883;52.554;13.364;2023-04-15T13:53:49;11.50;99.90
15564;DHT22;7883;52.554;13.364;2023-04-15T13:56:19;11.50;99.90
15564;DHT22;7883;52.554;13.364;2023-04-15T13:58:46;11.40;99.90
15564;DHT22;7883;52.554;13.364;2023-04-15T14:01:13;11.30;99.90
15564;DHT22;7883;52.554;13.364;2023-04-15T14:03:40;11.30;99.90
15564;DHT22;7883;52.554;13.364;2023-04-15T14:06:09;11.40;99.90
15564;DHT22;7883;52.554;13.364;2023-04-15T14:08:37;11.40;99.90
15564;DHT22;7883;52.554;13.364;2023-04-15T14:11:06;11.40;99.90
15564;DHT22;7883;52.554;13.364;2023-04-15T14:13:33;11.40;99.90
15564;DHT22;7883;52.554;13.364;2023-04-15T14:16:00;11.40;99.90
15564;DHT22;7883;52.554;13.364;2023-04-15T14:18:28;11.40;99.90
15564;DHT22;7883;52.554;13.364;2023-04-15T14:20:57;11.40;99.90
15564;DHT22;7883;52.554;13.364;2023-04-15T14:23:26;11.50;99.90
15564;DHT22;7883;52.554;13.364;2023-04-15T14:25:53;11.50;99.90
15564;DHT22;7883;52.554;13.364;2023-04-15T14:28:20;11.40;99.90
15564;DHT22;7883;52.554;13.364;2023-04-15T14:30:49;11.40;99.90
15564;DHT22;7883;52.554;13.364;2023-04-15T14:33:16;11.40;99.90
15564;DHT22;7883;52.554;13.364;2023-04-15T14:35:44;11.50;99.90
15564;DHT22;7883;52.554;13.364;2023-04-15T14:38:13;11.40;99.90
15564;DHT22;7883;52.554;13.364;2023-04-15T14:40:41;11.40;99.90
15564;DHT22;7883;52.554;13.364;2023-04-15T14:43:09;11.40;99.90
15564;DHT22;7883;52.554;13.364;2023-04-15T14:45:36;11.30;99.90
15564;DHT22;7883;52.554;13.364;2023-04-15T14:48:08;11.30;99.90
15564;DHT22;7883;52.554;13.364;2023-04-15T14:50:39;11.30;99.90
15564;DHT22;7883;52.554;13.364;2023-04-15T14:53:06;11.40;99.90
15564;DHT22;7883;52.554;13.364;2023-04-15T14:55:33;11.40;99.90
15564;DHT22;7883;52.554;13.364;2023-04-15T14:58:02;11.40;99.90
15564;DHT22;7883;52.554;13.364;2023-04-15T15:00:29;11.40;99.90
15564;DHT22;7883;52.554;13.364;2023-04-15T15:03:00;11.40;99.90
15564;DHT22;7883;52.554;13.364;2023-04-15T15:05:27;11.40;99.90
15564;DHT22;7883;52.554;13.364;2023-04-15T15:07:54;11.30;99.90
15564;DHT22;7883;52.554;13.364;2023-04-15T15:10:22;11.40;99.90
15564;DHT22;7883;52.554;13.364;2023-04-15T15:12:49;11.30;99.90
15564;DHT22;7883;52.554;13.364;2023-04-15T15:15:18;11.40;99.90
15564;DHT22;7883;52.554;13.364;2023-04-15T15:17:45;11.30;99.90
15564;DHT22;7883;52.554;13.364;2023-04-15T15:20:12;11.40;99.90
15564;DHT22;7883;52.554;13.364;2023-04-15T15:22:41;11.40;99.90
15564;DHT22;7883;52.554;13.364;2023-04-15T15:25:09;11.40;99.90
15564;DHT22;7883;52.554;13.364;2023-04-15T15:27:36;11.40;99.90
15564;DHT22;7883;52.554;13.364;2023-04-15T15:30:06;11.40;99.90
15564;DHT22;7883;52.554;13.364;2023-04-15T15:32:34;11.40;99.90
15564;DHT22;7883;52.554;13.364;2023-04-15T15:35:03;11.40;99.90
15564;DHT22;7883;52.554;13.364;2023-04-15T15:37:30;11.40;99.90
15564;DHT22;7883;52.554;13.364;2023-04-15T15:39:57;11.30;99.90
15564;DHT22;7883;52.554;13.364;2023-04-15T15:42:25;11.40;99.90
15564;DHT22;7883;52.554;13.364;2023-04-15T15:44:52;11.30;99.90
15564;DHT22;7883;52.554;13.364;2023-04-15T15:47:20;11.20;99.90
15564;DHT22;7883;52.554;13.364;2023-04-15T15:49:49;11.20;99.90
15564;DHT22;7883;52.554;13.364;2023-04-15T15:52:19;11.20;99.90
15564;DHT22;7883;52.554;13.364;2023-04-15T15:54:48;11.20;99.90